sensor_id;sensor_type;location;lat;lon;timestamp;P1;durP1;ratioP1;P2;durP2;ratioP2
55290;SDS011;41155;39.768;2.712;2024-01-11T00:00:32;17.15;;;15.50;;
55290;SDS011;41155;39.768;2.712;2024-01-11T00:02:58;17.08;;;15.35;;
55290;SDS011;41155;39.768;2.712;2024-01-11T00:05:23;18.77;;;16.40;;
55290;SDS011;41155;39.768;2.712;2024-01-11T00:07:49;25.80;;;19.92;;
55290;SDS011;41155;39.768;2.712;2024-01-11T00:10:15;25.95;;;20.75;;
55290;SDS011;41155;39.768;2.712;2024-01-11T00:12:40;19.92;;;17.42;;
55290;SDS011;41155;39.768;2.712;2024-01-11T00:15:06;18.92;;;14.93;;
55290;SDS011;41155;39.768;2.712;2024-01-11T00:17:32;18.73;;;16.38;;
55290;SDS011;41155;39.768;2.712;2024-01-11T00:19:57;21.42;;;18.90;;
55290;SDS011;41155;39.768;2.712;2024-01-11T00:22:23;26.42;;;22.00;;
55290;SDS011;41155;39.768;2.712;2024-01-11T00:24:48;32.35;;;26.45;;
55290;SDS011;41155;39.768;2.712;2024-01-11T00:27:14;38.55;;;30.50;;
55290;SDS011;41155;39.768;2.712;2024-01-11T00:29:40;40.65;;;30.98;;
55290;SDS011;41155;39.768;2.712;2024-01-11T00:32:06;46.83;;;33.47;;
55290;SDS011;41155;39.768;2.712;2024-01-11T00:34:31;50.67;;;37.53;;
55290;SDS011;41155;39.768;2.712;2024-01-11T00:36:57;61.47;;;41.03;;
55290;SDS011;41155;39.768;2.712;2024-01-11T00:39:23;58.63;;;42.17;;
55290;SDS011;41155;39.768;2.712;2024-01-11T00:41:48;68.40;;;40.22;;
55290;SDS011;41155;39.768;2.712;2024-01-11T00:44:14;53.28;;;38.42;;
55290;SDS011;41155;39.768;2.712;2024-01-11T00:46:39;51.20;;;36.45;;
55290;SDS011;41155;39.768;2.712;2024-01-11T00:49:06;49.50;;;33.95;;
55290;SDS011;41155;39.768;2.712;2024-01-11T00:51:31;52.08;;;31.48;;
55290;SDS011;41155;39.768;2.712;2024-01-11T00:53:57;36.63;;;29.88;;
55290;SDS011;41155;39.768;2.712;2024-01-11T00:56:22;30.42;;;24.73;;
55290;SDS011;41155;39.768;2.712;2024-01-11T00:58:48;33.35;;;25.83;;
55290;SDS011;41155;39.768;2.712;2024-01-11T01:01:13;41.50;;;28.52;;
55290;SDS011;41155;39.768;2.712;2024-01-11T01:03:39;34.10;;;24.25;;
55290;SDS011;41155;39.768;2.712;2024-01-11T01:06:04;27.45;;;21.27;;
55290;SDS011;41155;39.768;2.712;2024-01-11T01:08:30;29.75;;;20.02;;
55290;SDS011;41155;39.768;2.712;2024-01-11T01:10:56;26.35;;;20.85;;
55290;SDS011;41155;39.768;2.712;2024-01-11T01:13:21;24.73;;;19.60;;
55290;SDS011;41155;39.768;2.712;2024-01-11T01:15:47;28.13;;;20.52;;
55290;SDS011;41155;39.768;2.712;2024-01-11T01:18:12;37.33;;;19.92;;
55290;SDS011;41155;39.768;2.712;2024-01-11T01:20:38;30.80;;;20.45;;
55290;SDS011;41155;39.768;2.712;2024-01-11T01:23:03;30.05;;;21.88;;
55290;SDS011;41155;39.768;2.712;2024-01-11T01:25:29;28.02;;;21.35;;
55290;SDS011;41155;39.768;2.712;2024-01-11T01:27:55;28.77;;;22.35;;
55290;SDS011;41155;39.768;2.712;2024-01-11T01:30:20;30.00;;;23.70;;
55290;SDS011;41155;39.768;2.712;2024-01-11T01:32:47;34.25;;;23.73;;
55290;SDS011;41155;39.768;2.712;2024-01-11T01:35:12;32.92;;;26.13;;
55290;SDS011;41155;39.768;2.712;2024-01-11T01:37:38;31.88;;;27.52;;
55290;SDS011;41155;39.768;2.712;2024-01-11T01:40:03;37.10;;;29.15;;
55290;SDS011;41155;39.768;2.712;2024-01-11T01:42:30;33.28;;;29.83;;
55290;SDS011;41155;39.768;2.712;2024-01-11T01:44:55;29.40;;;26.00;;
55290;SDS011;41155;39.768;2.712;2024-01-11T01:47:21;33.58;;;27.15;;
55290;SDS011;41155;39.768;2.712;2024-01-11T01:49:47;36.20;;;29.80;;
55290;SDS011;41155;39.768;2.712;2024-01-11T01:52:14;32.53;;;29.10;;
55290;SDS011;41155;39.768;2.712;2024-01-11T01:54:41;30.83;;;27.52;;
55290;SDS011;41155;39.768;2.712;2024-01-11T01:57:08;32.50;;;29.02;;
55290;SDS011;41155;39.768;2.712;2024-01-11T01:59:35;33.70;;;27.73;;
55290;SDS011;41155;39.768;2.712;2024-01-11T02:02:02;28.33;;;24.77;;
55290;SDS011;41155;39.768;2.712;2024-01-11T02:04:29;31.35;;;23.30;;
55290;SDS011;41155;39.768;2.712;2024-01-11T02:06:55;37.67;;;30.73;;
55290;SDS011;41155;39.768;2.712;2024-01-11T02:09:23;59.72;;;42.55;;
55290;SDS011;41155;39.768;2.712;2024-01-11T02:11:50;46.30;;;35.83;;
55290;SDS011;41155;39.768;2.712;2024-01-11T02:14:18;44.85;;;30.38;;
55290;SDS011;41155;39.768;2.712;2024-01-11T02:16:44;45.97;;;26.42;;
55290;SDS011;41155;39.768;2.712;2024-01-11T02:19:12;25.95;;;19.00;;
55290;SDS011;41155;39.768;2.712;2024-01-11T02:21:40;21.67;;;18.58;;
55290;SDS011;41155;39.768;2.712;2024-01-11T02:24:07;43.17;;;33.90;;
55290;SDS011;41155;39.768;2.712;2024-01-11T02:26:33;25.45;;;20.95;;
55290;SDS011;41155;39.768;2.712;2024-01-11T02:28:59;17.98;;;16.15;;
55290;SDS011;41155;39.768;2.712;2024-01-11T02:31:25;19.67;;;16.17;;
55290;SDS011;41155;39.768;2.712;2024-01-11T02:33:51;17.70;;;15.70;;
55290;SDS011;41155;39.768;2.712;2024-01-11T02:36:18;18.25;;;14.95;;
55290;SDS011;41155;39.768;2.712;2024-01-11T02:38:45;14.63;;;13.35;;
55290;SDS011;41155;39.768;2.712;2024-01-11T02:41:11;15.40;;;13.85;;
55290;SDS011;41155;39.768;2.712;2024-01-11T02:43:37;17.48;;;15.65;;
55290;SDS011;41155;39.768;2.712;2024-01-11T02:46:02;16.80;;;15.10;;
55290;SDS011;41155;39.768;2.712;2024-01-11T02:48:28;16.55;;;14.73;;
55290;SDS011;41155;39.768;2.712;2024-01-11T02:50:55;16.67;;;13.75;;
55290;SDS011;41155;39.768;2.712;2024-01-11T02:53:21;14.68;;;13.20;;
55290;SDS011;41155;39.768;2.712;2024-01-11T02:55:46;17.75;;;14.27;;
55290;SDS011;41155;39.768;2.712;2024-01-11T02:58:12;16.65;;;14.85;;
55290;SDS011;41155;39.768;2.712;2024-01-11T03:00:37;21.92;;;15.75;;
55290;SDS011;41155;39.768;2.712;2024-01-11T03:03:03;19.00;;;17.00;;
55290;SDS011;41155;39.768;2.712;2024-01-11T03:05:29;29.67;;;19.30;;
55290;SDS011;41155;39.768;2.712;2024-01-11T03:07:54;29.75;;;18.10;;
55290;SDS011;41155;39.768;2.712;2024-01-11T03:10:20;24.80;;;18.52;;
55290;SDS011;41155;39.768;2.712;2024-01-11T03:12:45;19.70;;;17.73;;
55290;SDS011;41155;39.768;2.712;2024-01-11T03:15:12;18.80;;;16.90;;
55290;SDS011;41155;39.768;2.712;2024-01-11T03:17:37;18.38;;;16.63;;
55290;SDS011;41155;39.768;2.712;2024-01-11T03:20:03;19.45;;;17.60;;
55290;SDS011;41155;39.768;2.712;2024-01-11T03:22:29;18.77;;;16.73;;
55290;SDS011;41155;39.768;2.712;2024-01-11T03:24:55;20.35;;;17.30;;
55290;SDS011;41155;39.768;2.712;2024-01-11T03:27:20;19.25;;;17.25;;
55290;SDS011;41155;39.768;2.712;2024-01-11T03:29:46;19.30;;;16.85;;
55290;SDS011;41155;39.768;2.712;2024-01-11T03:32:11;19.30;;;17.30;;
55290;SDS011;41155;39.768;2.712;2024-01-11T03:34:39;17.23;;;15.48;;
55290;SDS011;41155;39.768;2.712;2024-01-11T03:37:04;11.00;;;10.20;;
55290;SDS011;41155;39.768;2.712;2024-01-11T03:39:30;12.60;;;11.45;;
55290;SDS011;41155;39.768;2.712;2024-01-11T03:41:55;15.70;;;14.10;;
55290;SDS011;41155;39.768;2.712;2024-01-11T03:44:22;16.50;;;14.43;;
55290;SDS011;41155;39.768;2.712;2024-01-11T03:46:47;12.45;;;11.23;;
55290;SDS011;41155;39.768;2.712;2024-01-11T03:49:13;12.60;;;11.30;;
55290;SDS011;41155;39.768;2.712;2024-01-11T03:51:39;8.93;;;8.23;;
55290;SDS011;41155;39.768;2.712;2024-01-11T03:54:05;11.55;;;9.38;;
55290;SDS011;41155;39.768;2.712;2024-01-11T03:56:30;12.13;;;7.60;;
55290;SDS011;41155;39.768;2.712;2024-01-11T03:58:56;9.32;;;7.78;;
55290;SDS011;41155;39.768;2.712;2024-01-11T04:01:21;7.93;;;6.38;;
55290;SDS011;41155;39.768;2.712;2024-01-11T04:03:49;10.90;;;6.90;;
55290;SDS011;41155;39.768;2.712;2024-01-11T04:06:19;8.65;;;7.95;;
55290;SDS011;41155;39.768;2.712;2024-01-11T04:08:46;7.70;;;7.03;;
55290;SDS011;41155;39.768;2.712;2024-01-11T04:11:12;9.07;;;8.23;;
55290;SDS011;41155;39.768;2.712;2024-01-11T04:13:37;9.07;;;8.27;;
55290;SDS011;41155;39.768;2.712;2024-01-11T04:16:07;7.93;;;7.13;;
55290;SDS011;41155;39.768;2.712;2024-01-11T04:18:33;12.75;;;9.57;;
55290;SDS011;41155;39.768;2.712;2024-01-11T04:20:59;10.45;;;8.52;;
55290;SDS011;41155;39.768;2.712;2024-01-11T04:23:24;7.25;;;6.72;;
55290;SDS011;41155;39.768;2.712;2024-01-11T04:25:50;7.70;;;7.13;;
55290;SDS011;41155;39.768;2.712;2024-01-11T04:28:16;10.85;;;6.32;;
55290;SDS011;41155;39.768;2.712;2024-01-11T04:30:42;7.15;;;6.32;;
55290;SDS011;41155;39.768;2.712;2024-01-11T04:33:08;8.25;;;6.22;;
55290;SDS011;41155;39.768;2.712;2024-01-11T04:35:34;6.50;;;6.13;;
55290;SDS011;41155;39.768;2.712;2024-01-11T04:38:00;6.40;;;6.00;;
55290;SDS011;41155;39.768;2.712;2024-01-11T04:40:25;7.13;;;6.57;;
55290;SDS011;41155;39.768;2.712;2024-01-11T04:42:51;7.80;;;6.90;;
55290;SDS011;41155;39.768;2.712;2024-01-11T04:45:16;6.95;;;6.38;;
55290;SDS011;41155;39.768;2.712;2024-01-11T04:47:42;6.82;;;6.43;;
55290;SDS011;41155;39.768;2.712;2024-01-11T04:50:07;11.30;;;7.25;;
55290;SDS011;41155;39.768;2.712;2024-01-11T04:52:33;7.40;;;6.72;;
55290;SDS011;41155;39.768;2.712;2024-01-11T04:54:59;6.85;;;6.38;;
55290;SDS011;41155;39.768;2.712;2024-01-11T04:57:24;7.30;;;6.80;;
55290;SDS011;41155;39.768;2.712;2024-01-11T04:59:50;8.20;;;7.50;;
55290;SDS011;41155;39.768;2.712;2024-01-11T05:02:15;7.30;;;6.70;;
55290;SDS011;41155;39.768;2.712;2024-01-11T05:04:41;6.63;;;6.32;;
55290;SDS011;41155;39.768;2.712;2024-01-11T05:07:06;6.82;;;6.32;;
55290;SDS011;41155;39.768;2.712;2024-01-11T05:09:32;6.88;;;6.38;;
55290;SDS011;41155;39.768;2.712;2024-01-11T05:11:58;6.82;;;6.43;;
55290;SDS011;41155;39.768;2.712;2024-01-11T05:14:23;7.60;;;7.10;;
55290;SDS011;41155;39.768;2.712;2024-01-11T05:16:49;7.60;;;6.85;;
55290;SDS011;41155;39.768;2.712;2024-01-11T05:19:15;6.70;;;6.30;;
55290;SDS011;41155;39.768;2.712;2024-01-11T05:21:41;7.43;;;6.55;;
55290;SDS011;41155;39.768;2.712;2024-01-11T05:24:06;7.15;;;6.45;;
55290;SDS011;41155;39.768;2.712;2024-01-11T05:26:31;6.53;;;6.10;;
55290;SDS011;41155;39.768;2.712;2024-01-11T05:28:57;7.07;;;6.63;;
55290;SDS011;41155;39.768;2.712;2024-01-11T05:31:22;11.80;;;7.97;;
55290;SDS011;41155;39.768;2.712;2024-01-11T05:33:48;8.65;;;7.35;;
55290;SDS011;41155;39.768;2.712;2024-01-11T05:36:13;7.78;;;7.18;;
55290;SDS011;41155;39.768;2.712;2024-01-11T05:38:39;8.20;;;7.55;;
55290;SDS011;41155;39.768;2.712;2024-01-11T05:41:05;7.60;;;7.00;;
55290;SDS011;41155;39.768;2.712;2024-01-11T05:43:31;7.43;;;6.90;;
55290;SDS011;41155;39.768;2.712;2024-01-11T05:45:56;8.73;;;7.88;;
55290;SDS011;41155;39.768;2.712;2024-01-11T05:48:22;8.32;;;7.50;;
55290;SDS011;41155;39.768;2.712;2024-01-11T05:50:47;8.55;;;7.75;;
55290;SDS011;41155;39.768;2.712;2024-01-11T05:53:13;8.50;;;7.70;;
55290;SDS011;41155;39.768;2.712;2024-01-11T05:55:39;8.23;;;7.53;;
55290;SDS011;41155;39.768;2.712;2024-01-11T05:58:05;7.47;;;6.95;;
55290;SDS011;41155;39.768;2.712;2024-01-11T06:00:30;8.05;;;7.40;;
55290;SDS011;41155;39.768;2.712;2024-01-11T06:02:56;7.95;;;7.32;;
55290;SDS011;41155;39.768;2.712;2024-01-11T06:05:21;7.22;;;6.65;;
55290;SDS011;41155;39.768;2.712;2024-01-11T06:07:47;7.68;;;7.03;;
55290;SDS011;41155;39.768;2.712;2024-01-11T06:10:13;7.07;;;6.55;;
55290;SDS011;41155;39.768;2.712;2024-01-11T06:12:39;7.07;;;6.50;;
55290;SDS011;41155;39.768;2.712;2024-01-11T06:15:06;7.43;;;6.90;;
55290;SDS011;41155;39.768;2.712;2024-01-11T06:17:32;7.13;;;6.65;;
55290;SDS011;41155;39.768;2.712;2024-01-11T06:19:58;7.07;;;6.53;;
55290;SDS011;41155;39.768;2.712;2024-01-11T06:22:23;7.10;;;6.50;;
55290;SDS011;41155;39.768;2.712;2024-01-11T06:24:49;7.05;;;6.47;;
55290;SDS011;41155;39.768;2.712;2024-01-11T06:27:14;8.07;;;6.40;;
55290;SDS011;41155;39.768;2.712;2024-01-11T06:29:40;26.02;;;6.78;;
55290;SDS011;41155;39.768;2.712;2024-01-11T06:32:05;8.30;;;7.07;;
55290;SDS011;41155;39.768;2.712;2024-01-11T06:34:32;9.95;;;9.15;;
55290;SDS011;41155;39.768;2.712;2024-01-11T06:36:57;10.50;;;9.52;;
55290;SDS011;41155;39.768;2.712;2024-01-11T06:39:23;11.43;;;10.32;;
55290;SDS011;41155;39.768;2.712;2024-01-11T06:41:48;11.38;;;10.35;;
55290;SDS011;41155;39.768;2.712;2024-01-11T06:44:14;18.40;;;13.65;;
55290;SDS011;41155;39.768;2.712;2024-01-11T06:46:39;14.73;;;12.45;;
55290;SDS011;41155;39.768;2.712;2024-01-11T06:49:06;12.68;;;11.57;;
55290;SDS011;41155;39.768;2.712;2024-01-11T06:51:35;9.90;;;9.10;;
55290;SDS011;41155;39.768;2.712;2024-01-11T06:54:00;12.43;;;8.32;;
55290;SDS011;41155;39.768;2.712;2024-01-11T06:56:26;9.30;;;8.45;;
55290;SDS011;41155;39.768;2.712;2024-01-11T06:58:52;8.30;;;7.80;;
55290;SDS011;41155;39.768;2.712;2024-01-11T07:01:18;8.10;;;7.40;;
55290;SDS011;41155;39.768;2.712;2024-01-11T07:03:43;7.50;;;7.00;;
55290;SDS011;41155;39.768;2.712;2024-01-11T07:06:09;6.50;;;6.20;;
55290;SDS011;41155;39.768;2.712;2024-01-11T07:08:35;8.68;;;7.85;;
55290;SDS011;41155;39.768;2.712;2024-01-11T07:11:01;8.95;;;8.35;;
55290;SDS011;41155;39.768;2.712;2024-01-11T07:13:30;8.85;;;8.15;;
55290;SDS011;41155;39.768;2.712;2024-01-11T07:15:58;7.60;;;7.20;;
55290;SDS011;41155;39.768;2.712;2024-01-11T07:18:25;7.20;;;6.70;;
55290;SDS011;41155;39.768;2.712;2024-01-11T07:20:51;8.25;;;7.50;;
55290;SDS011;41155;39.768;2.712;2024-01-11T07:23:17;7.95;;;7.35;;
55290;SDS011;41155;39.768;2.712;2024-01-11T07:25:43;7.72;;;7.22;;
55290;SDS011;41155;39.768;2.712;2024-01-11T07:28:08;13.15;;;11.77;;
55290;SDS011;41155;39.768;2.712;2024-01-11T07:30:34;14.27;;;12.90;;
55290;SDS011;41155;39.768;2.712;2024-01-11T07:33:00;13.00;;;11.93;;
55290;SDS011;41155;39.768;2.712;2024-01-11T07:35:25;6.78;;;6.32;;
55290;SDS011;41155;39.768;2.712;2024-01-11T07:37:51;9.70;;;8.88;;
55290;SDS011;41155;39.768;2.712;2024-01-11T07:40:17;14.43;;;12.80;;
55290;SDS011;41155;39.768;2.712;2024-01-11T07:42:42;10.18;;;9.32;;
55290;SDS011;41155;39.768;2.712;2024-01-11T07:45:11;9.68;;;8.88;;
55290;SDS011;41155;39.768;2.712;2024-01-11T07:47:37;13.25;;;11.80;;
55290;SDS011;41155;39.768;2.712;2024-01-11T07:50:06;13.38;;;12.18;;
55290;SDS011;41155;39.768;2.712;2024-01-11T07:52:34;16.00;;;13.50;;
55290;SDS011;41155;39.768;2.712;2024-01-11T07:55:00;18.65;;;12.43;;
55290;SDS011;41155;39.768;2.712;2024-01-11T07:57:31;12.65;;;11.65;;
55290;SDS011;41155;39.768;2.712;2024-01-11T07:59:58;13.30;;;12.10;;
55290;SDS011;41155;39.768;2.712;2024-01-11T08:02:24;11.98;;;10.98;;
55290;SDS011;41155;39.768;2.712;2024-01-11T08:04:50;11.07;;;10.15;;
55290;SDS011;41155;39.768;2.712;2024-01-11T08:07:15;13.90;;;11.98;;
55290;SDS011;41155;39.768;2.712;2024-01-11T08:09:41;13.63;;;10.85;;
55290;SDS011;41155;39.768;2.712;2024-01-11T08:12:16;11.50;;;10.57;;
55290;SDS011;41155;39.768;2.712;2024-01-11T08:14:42;11.27;;;8.93;;
55290;SDS011;41155;39.768;2.712;2024-01-11T08:17:08;10.68;;;9.63;;
55290;SDS011;41155;39.768;2.712;2024-01-11T08:19:34;13.25;;;9.30;;
55290;SDS011;41155;39.768;2.712;2024-01-11T08:22:00;11.10;;;8.90;;
55290;SDS011;41155;39.768;2.712;2024-01-11T08:24:26;16.83;;;9.07;;
55290;SDS011;41155;39.768;2.712;2024-01-11T08:26:51;36.78;;;12.02;;
55290;SDS011;41155;39.768;2.712;2024-01-11T08:29:17;23.23;;;12.68;;
55290;SDS011;41155;39.768;2.712;2024-01-11T08:31:47;15.48;;;13.10;;
55290;SDS011;41155;39.768;2.712;2024-01-11T08:34:12;21.20;;;13.65;;
55290;SDS011;41155;39.768;2.712;2024-01-11T08:36:38;14.07;;;12.77;;
55290;SDS011;41155;39.768;2.712;2024-01-11T08:39:07;17.67;;;12.35;;
55290;SDS011;41155;39.768;2.712;2024-01-11T08:41:36;17.83;;;15.55;;
55290;SDS011;41155;39.768;2.712;2024-01-11T08:44:02;17.75;;;15.95;;
55290;SDS011;41155;39.768;2.712;2024-01-11T08:46:30;46.55;;;41.72;;
55290;SDS011;41155;39.768;2.712;2024-01-11T08:48:58;35.40;;;31.48;;
55290;SDS011;41155;39.768;2.712;2024-01-11T08:51:24;22.80;;;20.52;;
55290;SDS011;41155;39.768;2.712;2024-01-11T08:53:49;20.13;;;18.10;;
55290;SDS011;41155;39.768;2.712;2024-01-11T08:56:15;16.77;;;15.07;;
55290;SDS011;41155;39.768;2.712;2024-01-11T08:58:42;15.85;;;14.32;;
55290;SDS011;41155;39.768;2.712;2024-01-11T09:01:08;22.10;;;14.07;;
55290;SDS011;41155;39.768;2.712;2024-01-11T09:03:34;16.95;;;14.82;;
55290;SDS011;41155;39.768;2.712;2024-01-11T09:06:02;14.32;;;12.77;;
55290;SDS011;41155;39.768;2.712;2024-01-11T09:08:28;15.27;;;13.80;;
55290;SDS011;41155;39.768;2.712;2024-01-11T09:10:55;16.95;;;14.18;;
55290;SDS011;41155;39.768;2.712;2024-01-11T09:13:21;20.52;;;14.90;;
55290;SDS011;41155;39.768;2.712;2024-01-11T09:15:46;19.35;;;15.35;;
55290;SDS011;41155;39.768;2.712;2024-01-11T09:18:12;17.70;;;16.00;;
55290;SDS011;41155;39.768;2.712;2024-01-11T09:20:39;18.08;;;16.02;;
55290;SDS011;41155;39.768;2.712;2024-01-11T09:23:05;68.68;;;37.33;;
55290;SDS011;41155;39.768;2.712;2024-01-11T09:25:30;105.25;;;94.22;;
55290;SDS011;41155;39.768;2.712;2024-01-11T09:27:56;39.58;;;35.63;;
55290;SDS011;41155;39.768;2.712;2024-01-11T09:30:21;23.65;;;20.95;;
55290;SDS011;41155;39.768;2.712;2024-01-11T09:32:47;22.70;;;17.80;;
55290;SDS011;41155;39.768;2.712;2024-01-11T09:35:13;20.90;;;18.88;;
55290;SDS011;41155;39.768;2.712;2024-01-11T09:37:38;21.52;;;15.52;;
55290;SDS011;41155;39.768;2.712;2024-01-11T09:40:04;23.83;;;18.85;;
55290;SDS011;41155;39.768;2.712;2024-01-11T09:42:35;30.35;;;27.15;;
55290;SDS011;41155;39.768;2.712;2024-01-11T09:45:01;25.90;;;22.00;;
55290;SDS011;41155;39.768;2.712;2024-01-11T09:47:27;25.42;;;19.40;;
55290;SDS011;41155;39.768;2.712;2024-01-11T09:49:53;29.40;;;22.92;;
55290;SDS011;41155;39.768;2.712;2024-01-11T09:52:22;24.25;;;18.90;;
55290;SDS011;41155;39.768;2.712;2024-01-11T09:54:50;22.13;;;17.05;;
55290;SDS011;41155;39.768;2.712;2024-01-11T09:57:16;18.08;;;16.23;;
55290;SDS011;41155;39.768;2.712;2024-01-11T09:59:49;16.90;;;15.43;;
55290;SDS011;41155;39.768;2.712;2024-01-11T10:02:19;15.70;;;14.15;;
55290;SDS011;41155;39.768;2.712;2024-01-11T10:04:45;15.75;;;14.15;;
55290;SDS011;41155;39.768;2.712;2024-01-11T10:07:11;16.17;;;14.52;;
55290;SDS011;41155;39.768;2.712;2024-01-11T10:09:38;19.48;;;16.67;;
55290;SDS011;41155;39.768;2.712;2024-01-11T10:12:04;42.72;;;19.75;;
55290;SDS011;41155;39.768;2.712;2024-01-11T10:14:30;25.85;;;17.55;;
55290;SDS011;41155;39.768;2.712;2024-01-11T10:16:56;29.70;;;18.13;;
55290;SDS011;41155;39.768;2.712;2024-01-11T10:19:22;33.22;;;17.55;;
55290;SDS011;41155;39.768;2.712;2024-01-11T10:21:50;26.65;;;16.98;;
55290;SDS011;41155;39.768;2.712;2024-01-11T10:24:19;22.55;;;18.20;;
55290;SDS011;41155;39.768;2.712;2024-01-11T10:26:51;20.23;;;17.38;;
55290;SDS011;41155;39.768;2.712;2024-01-11T10:29:20;26.02;;;23.27;;
55290;SDS011;41155;39.768;2.712;2024-01-11T10:31:47;26.45;;;23.85;;
55290;SDS011;41155;39.768;2.712;2024-01-11T10:34:12;34.10;;;30.38;;
55290;SDS011;41155;39.768;2.712;2024-01-11T10:36:38;29.88;;;26.75;;
55290;SDS011;41155;39.768;2.712;2024-01-11T10:39:03;30.88;;;27.55;;
55290;SDS011;41155;39.768;2.712;2024-01-11T10:41:39;28.95;;;25.58;;
55290;SDS011;41155;39.768;2.712;2024-01-11T10:44:12;40.70;;;27.27;;
55290;SDS011;41155;39.768;2.712;2024-01-11T10:46:44;43.55;;;35.03;;
55290;SDS011;41155;39.768;2.712;2024-01-11T10:49:11;51.45;;;41.42;;
55290;SDS011;41155;39.768;2.712;2024-01-11T10:51:41;37.00;;;32.47;;
55290;SDS011;41155;39.768;2.712;2024-01-11T10:54:14;36.58;;;26.13;;
55290;SDS011;41155;39.768;2.712;2024-01-11T10:56:41;29.92;;;26.10;;
55290;SDS011;41155;39.768;2.712;2024-01-11T10:59:09;185.93;;;166.10;;
55290;SDS011;41155;39.768;2.712;2024-01-11T11:01:37;31.13;;;25.52;;
55290;SDS011;41155;39.768;2.712;2024-01-11T11:04:04;64.57;;;57.67;;
55290;SDS011;41155;39.768;2.712;2024-01-11T11:06:32;43.03;;;37.75;;
55290;SDS011;41155;39.768;2.712;2024-01-11T11:09:00;30.67;;;24.10;;
55290;SDS011;41155;39.768;2.712;2024-01-11T11:11:29;24.88;;;19.73;;
55290;SDS011;41155;39.768;2.712;2024-01-11T11:13:58;26.83;;;18.02;;
55290;SDS011;41155;39.768;2.712;2024-01-11T11:16:25;26.48;;;15.40;;
55290;SDS011;41155;39.768;2.712;2024-01-11T11:18:54;17.15;;;10.63;;
55290;SDS011;41155;39.768;2.712;2024-01-11T11:21:21;26.00;;;11.85;;
55290;SDS011;41155;39.768;2.712;2024-01-11T11:23:46;18.70;;;11.63;;
55290;SDS011;41155;39.768;2.712;2024-01-11T11:26:16;21.52;;;9.65;;
55290;SDS011;41155;39.768;2.712;2024-01-11T11:28:42;22.90;;;12.13;;
55290;SDS011;41155;39.768;2.712;2024-01-11T11:31:08;19.00;;;10.25;;
55290;SDS011;41155;39.768;2.712;2024-01-11T11:33:40;23.77;;;10.82;;
55290;SDS011;41155;39.768;2.712;2024-01-11T11:36:06;26.75;;;11.80;;
55290;SDS011;41155;39.768;2.712;2024-01-11T11:38:37;22.48;;;11.73;;
55290;SDS011;41155;39.768;2.712;2024-01-11T11:41:03;23.98;;;16.90;;
55290;SDS011;41155;39.768;2.712;2024-01-11T11:43:29;24.20;;;13.30;;
55290;SDS011;41155;39.768;2.712;2024-01-11T11:45:56;30.35;;;14.07;;
55290;SDS011;41155;39.768;2.712;2024-01-11T11:53:36;28.88;;;20.83;;
55290;SDS011;41155;39.768;2.712;2024-01-11T11:56:02;30.33;;;22.40;;
55290;SDS011;41155;39.768;2.712;2024-01-11T11:58:29;32.55;;;22.83;;
55290;SDS011;41155;39.768;2.712;2024-01-11T12:00:55;36.10;;;23.08;;
55290;SDS011;41155;39.768;2.712;2024-01-11T12:03:35;34.22;;;30.27;;
55290;SDS011;41155;39.768;2.712;2024-01-11T12:06:08;40.25;;;26.38;;
55290;SDS011;41155;39.768;2.712;2024-01-11T12:08:35;38.85;;;25.58;;
55290;SDS011;41155;39.768;2.712;2024-01-11T12:11:01;82.43;;;27.88;;
55290;SDS011;41155;39.768;2.712;2024-01-11T12:13:27;50.65;;;27.05;;
55290;SDS011;41155;39.768;2.712;2024-01-11T12:15:53;41.17;;;26.15;;
55290;SDS011;41155;39.768;2.712;2024-01-11T12:18:20;28.55;;;25.45;;
55290;SDS011;41155;39.768;2.712;2024-01-11T12:20:46;38.45;;;32.28;;
55290;SDS011;41155;39.768;2.712;2024-01-11T12:23:11;27.35;;;22.55;;
55290;SDS011;41155;39.768;2.712;2024-01-11T12:25:39;25.38;;;20.20;;
55290;SDS011;41155;39.768;2.712;2024-01-11T12:28:05;24.88;;;19.15;;
55290;SDS011;41155;39.768;2.712;2024-01-11T12:30:31;26.83;;;16.73;;
55290;SDS011;41155;39.768;2.712;2024-01-11T12:32:58;22.75;;;13.70;;
55290;SDS011;41155;39.768;2.712;2024-01-11T12:35:26;24.77;;;11.57;;
55290;SDS011;41155;39.768;2.712;2024-01-11T12:37:58;19.88;;;10.18;;
55290;SDS011;41155;39.768;2.712;2024-01-11T12:40:24;38.78;;;11.70;;
55290;SDS011;41155;39.768;2.712;2024-01-11T12:42:52;22.33;;;10.10;;
55290;SDS011;41155;39.768;2.712;2024-01-11T12:45:18;20.15;;;9.55;;
55290;SDS011;41155;39.768;2.712;2024-01-11T12:47:43;16.55;;;8.38;;
55290;SDS011;41155;39.768;2.712;2024-01-11T12:50:09;21.63;;;11.35;;
55290;SDS011;41155;39.768;2.712;2024-01-11T12:52:37;24.35;;;12.68;;
55290;SDS011;41155;39.768;2.712;2024-01-11T12:55:03;21.08;;;13.45;;
55290;SDS011;41155;39.768;2.712;2024-01-11T12:57:29;29.10;;;15.68;;
55290;SDS011;41155;39.768;2.712;2024-01-11T12:59:55;21.08;;;14.55;;
55290;SDS011;41155;39.768;2.712;2024-01-11T13:02:35;25.42;;;13.77;;
55290;SDS011;41155;39.768;2.712;2024-01-11T13:05:01;19.83;;;12.38;;
55290;SDS011;41155;39.768;2.712;2024-01-11T13:07:32;18.42;;;9.90;;
55290;SDS011;41155;39.768;2.712;2024-01-11T13:09:59;21.35;;;12.02;;
55290;SDS011;41155;39.768;2.712;2024-01-11T13:12:24;24.20;;;10.98;;
55290;SDS011;41155;39.768;2.712;2024-01-11T13:14:50;32.65;;;11.77;;
55290;SDS011;41155;39.768;2.712;2024-01-11T13:17:17;28.52;;;11.82;;
55290;SDS011;41155;39.768;2.712;2024-01-11T13:19:43;37.22;;;11.50;;
55290;SDS011;41155;39.768;2.712;2024-01-11T13:22:10;26.23;;;11.10;;
55290;SDS011;41155;39.768;2.712;2024-01-11T13:24:35;23.55;;;10.27;;
55290;SDS011;41155;39.768;2.712;2024-01-11T13:27:01;23.83;;;11.15;;
55290;SDS011;41155;39.768;2.712;2024-01-11T13:29:26;32.45;;;10.60;;
55290;SDS011;41155;39.768;2.712;2024-01-11T13:31:52;35.20;;;11.65;;
55290;SDS011;41155;39.768;2.712;2024-01-11T13:34:17;26.67;;;11.88;;
55290;SDS011;41155;39.768;2.712;2024-01-11T13:36:44;24.13;;;11.30;;
55290;SDS011;41155;39.768;2.712;2024-01-11T13:39:09;31.95;;;11.57;;
55290;SDS011;41155;39.768;2.712;2024-01-11T13:41:35;32.65;;;13.55;;
55290;SDS011;41155;39.768;2.712;2024-01-11T13:44:01;34.10;;;12.70;;
55290;SDS011;41155;39.768;2.712;2024-01-11T13:46:27;32.38;;;16.58;;
55290;SDS011;41155;39.768;2.712;2024-01-11T13:48:52;39.35;;;19.95;;
55290;SDS011;41155;39.768;2.712;2024-01-11T13:51:18;55.08;;;25.17;;
55290;SDS011;41155;39.768;2.712;2024-01-11T13:53:44;46.08;;;16.98;;
55290;SDS011;41155;39.768;2.712;2024-01-11T13:56:09;29.23;;;14.43;;
55290;SDS011;41155;39.768;2.712;2024-01-11T13:58:35;31.95;;;12.00;;
55290;SDS011;41155;39.768;2.712;2024-01-11T14:01:01;35.22;;;11.38;;
55290;SDS011;41155;39.768;2.712;2024-01-11T14:03:28;50.03;;;11.85;;
55290;SDS011;41155;39.768;2.712;2024-01-11T14:05:53;30.23;;;10.52;;
55290;SDS011;41155;39.768;2.712;2024-01-11T14:08:19;28.65;;;10.82;;
55290;SDS011;41155;39.768;2.712;2024-01-11T14:10:47;34.50;;;12.30;;
55290;SDS011;41155;39.768;2.712;2024-01-11T14:13:13;27.45;;;12.82;;
55290;SDS011;41155;39.768;2.712;2024-01-11T14:15:38;35.90;;;14.73;;
55290;SDS011;41155;39.768;2.712;2024-01-11T14:18:05;33.72;;;12.48;;
55290;SDS011;41155;39.768;2.712;2024-01-11T14:20:31;33.67;;;12.73;;
55290;SDS011;41155;39.768;2.712;2024-01-11T14:22:59;38.65;;;11.85;;
55290;SDS011;41155;39.768;2.712;2024-01-11T14:25:24;32.50;;;13.27;;
55290;SDS011;41155;39.768;2.712;2024-01-11T14:27:50;27.50;;;12.23;;